createdAt,value
2023-01-08T00:00:08.400Z,100067.78
2023-01-08T00:02:39.561Z,100062.63
2023-01-08T00:05:06.901Z,100053.34
2023-01-08T00:07:33.627Z,100051.47
2023-01-08T00:10:00.830Z,100046.63
2023-01-08T00:12:27.639Z,100047.94
2023-01-08T00:14:54.464Z,100034.25
2023-01-08T00:17:21.213Z,100032.47
2023-01-08T00:19:48.007Z,100028.91
2023-01-08T00:22:14.770Z,100030.25
2023-01-08T00:24:41.520Z,100035.41
2023-01-08T00:27:08.322Z,100031.38
2023-01-08T00:29:35.255Z,100021.88
2023-01-08T00:32:02.048Z,100014.47
2023-01-08T00:34:28.775Z,100003.50
2023-01-08T00:36:55.536Z,99996.41
2023-01-08T00:39:22.414Z,99993.19
2023-01-08T00:41:49.798Z,99997.88
2023-01-08T00:44:16.556Z,100000.28
2023-01-08T00:46:43.340Z,100002.28
2023-01-08T00:49:10.223Z,99997.13
2023-01-08T00:51:36.934Z,100009.00
2023-01-08T00:54:03.833Z,100011.88
2023-01-08T00:56:30.611Z,100002.47
2023-01-08T00:58:57.524Z,99998.59
2023-01-08T01:01:24.468Z,99995.69
2023-01-08T01:03:51.491Z,99993.91
2023-01-08T01:06:18.361Z,99992.47
2023-01-08T01:08:45.194Z,99981.75
2023-01-08T01:11:19.042Z,99986.09
2023-01-08T01:13:45.917Z,100001.25
2023-01-08T01:16:12.673Z,100012.69
2023-01-08T01:18:39.545Z,100019.31
2023-01-08T01:21:14.257Z,100018.34
2023-01-08T01:23:41.674Z,100006.97
2023-01-08T01:26:19.090Z,100004.66
2023-01-08T01:28:48.518Z,100005.94
2023-01-08T01:31:15.708Z,99997.56
2023-01-08T01:33:42.894Z,100000.19
2023-01-08T01:36:12.285Z,100005.69
2023-01-08T01:38:39.265Z,99994.56
2023-01-08T01:41:06.127Z,99993.44
2023-01-08T01:43:36.684Z,99993.91
2023-01-08T01:46:06.712Z,99993.13
2023-01-08T01:48:33.556Z,99996.53
2023-01-08T01:51:00.307Z,99984.16
2023-01-08T01:53:32.908Z,99993.53
2023-01-08T01:56:00.603Z,99986.44
2023-01-08T01:58:29.913Z,99985.19
2023-01-08T02:00:59.320Z,99978.06
2023-01-08T02:03:30.591Z,99976.78
2023-01-08T02:06:03.915Z,99971.00
2023-01-08T02:08:33.447Z,99968.75
2023-01-08T02:11:09.054Z,99960.66
2023-01-08T02:13:39.774Z,99957.72
2023-01-08T02:16:26.221Z,99963.06
2023-01-08T02:19:07.843Z,99966.38
2023-01-08T02:21:43.651Z,99972.31
2023-01-08T02:24:20.512Z,99971.63
2023-01-08T02:26:48.309Z,99978.00
2023-01-08T02:29:19.617Z,99966.25
2023-01-08T02:31:46.786Z,99953.69
2023-01-08T02:34:13.965Z,99971.41
2023-01-08T02:36:54.428Z,99957.53
2023-01-08T02:39:58.360Z,99965.28
2023-01-08T02:42:47.681Z,99965.59
2023-01-08T02:45:25.213Z,99953.88
2023-01-08T02:48:00.773Z,99950.31
2023-01-08T02:50:30.664Z,99946.13
2023-01-08T02:53:21.951Z,99944.50
2023-01-08T02:55:54.983Z,99952.50
2023-01-08T02:58:24.532Z,99943.78
2023-01-08T03:00:52.171Z,99944.78
2023-01-08T03:03:23.910Z,99939.34
2023-01-08T03:05:55.149Z,99936.13
2023-01-08T03:08:22.868Z,99930.50
2023-01-08T03:11:03.130Z,99931.66
2023-01-08T03:13:57.509Z,99937.50
2023-01-08T03:16:33.194Z,99935.66
2023-01-08T03:19:07.575Z,99924.69
2023-01-08T03:21:36.164Z,99909.22
2023-01-08T03:24:04.604Z,99911.63
2023-01-08T03:26:33.179Z,99920.34
2023-01-08T03:29:01.249Z,99921.63
2023-01-08T03:31:30.255Z,99924.53
2023-01-08T03:33:57.901Z,99928.38
2023-01-08T03:36:28.542Z,99913.88
2023-01-08T03:39:02.126Z,99905.84
2023-01-08T03:41:31.627Z,99903.47
2023-01-08T03:43:58.485Z,99908.41
2023-01-08T03:46:34.479Z,99905.34
2023-01-08T03:49:03.953Z,99892.63
2023-01-08T03:51:40.609Z,99885.69
2023-01-08T03:54:09.144Z,99898.41
2023-01-08T03:56:35.954Z,99900.00
2023-01-08T03:59:02.780Z,99900.34
2023-01-08T04:01:29.690Z,99900.53
2023-01-08T04:03:56.570Z,99906.22
2023-01-08T04:06:23.420Z,99896.22
2023-01-08T04:08:50.403Z,99896.88
2023-01-08T04:11:17.320Z,99889.59
2023-01-08T04:13:44.126Z,99885.22
2023-01-08T04:16:10.955Z,99889.41
2023-01-08T04:18:37.809Z,99893.59
2023-01-08T04:21:04.926Z,99891.19
2023-01-08T04:23:31.690Z,99897.59
2023-01-08T04:25:58.417Z,99889.41
2023-01-08T04:28:25.222Z,99885.56
2023-01-08T04:30:52.275Z,99879.63
2023-01-08T04:33:19.038Z,99877.38
2023-01-08T04:35:45.834Z,99862.09
2023-01-08T04:38:12.697Z,99866.59
2023-01-08T04:40:39.449Z,99865.06
2023-01-08T04:43:06.197Z,99866.59
2023-01-08T04:45:33.013Z,99863.81
2023-01-08T04:48:00.289Z,99872.16
2023-01-08T04:50:27.882Z,99876.91
2023-01-08T04:52:54.881Z,99872.16
2023-01-08T04:55:21.717Z,99877.16
2023-01-08T04:57:48.895Z,99870.03
2023-01-08T05:00:16.175Z,99865.06
2023-01-08T05:02:43.276Z,99859.56
2023-01-08T05:05:10.267Z,99849.72
2023-01-08T05:07:37.047Z,99848.44
2023-01-08T05:10:04.207Z,99847.19
2023-01-08T05:12:30.949Z,99841.22
2023-01-08T05:14:57.696Z,99845.75
2023-01-08T05:17:24.484Z,99850.72
2023-01-08T05:19:51.453Z,99848.44
2023-01-08T05:22:18.238Z,99846.50
2023-01-08T05:24:45.006Z,99838.13
2023-01-08T05:27:11.731Z,99840.69
2023-01-08T05:29:38.475Z,99844.56
2023-01-08T05:32:06.640Z,99834.84
2023-01-08T05:34:33.367Z,99839.47
2023-01-08T05:37:00.184Z,99845.16
2023-01-08T05:39:27.055Z,99844.19
2023-01-08T05:41:53.823Z,99837.69
2023-01-08T05:44:20.583Z,99837.06
2023-01-08T05:46:47.296Z,99830.75
2023-01-08T05:49:16.780Z,99837.38
2023-01-08T05:51:43.601Z,99835.78
2023-01-08T05:54:10.993Z,99835.13
2023-01-08T05:56:37.824Z,99831.75
2023-01-08T05:59:04.804Z,99830.94
2023-01-08T06:01:33.146Z,99830.31
2023-01-08T06:04:00.042Z,99826.75
2023-01-08T06:06:26.832Z,99818.38
2023-01-08T06:08:53.567Z,99808.25
2023-01-08T06:11:20.503Z,99821.03
2023-01-08T06:13:47.368Z,99825.88
2023-01-08T06:16:14.289Z,99815.88
2023-01-08T06:18:41.462Z,99815.88
2023-01-08T06:21:08.308Z,99813.78
2023-01-08T06:23:35.149Z,99818.94
2023-01-08T06:26:04.284Z,99823.13
2023-01-08T06:28:31.451Z,99813.47
2023-01-08T06:31:02.551Z,99806.63
2023-01-08T06:33:30.188Z,99816.13
2023-01-08T06:36:02.266Z,99808.22
2023-01-08T06:38:35.324Z,99810.53
2023-01-08T06:41:07.219Z,99810.06
2023-01-08T06:43:36.072Z,99810.88
2023-01-08T06:46:04.103Z,99806.59
2023-01-08T06:48:31.009Z,99810.63
2023-01-08T06:51:01.185Z,99818.75
2023-01-08T06:53:28.110Z,99811.44
2023-01-08T06:55:57.260Z,99809.50
2023-01-08T06:58:25.117Z,99804.69
2023-01-08T07:00:52.224Z,99811.00
2023-01-08T07:03:19.324Z,99798.53
2023-01-08T07:05:46.257Z,99794.84
2023-01-08T07:08:16.007Z,99793.34
2023-01-08T07:10:44.004Z,99785.44
2023-01-08T07:13:12.808Z,99781.78
2023-01-08T07:15:43.277Z,99787.13
2023-01-08T07:18:11.953Z,99787.41
2023-01-08T07:20:39.267Z,99788.38
2023-01-08T07:23:09.619Z,99780.63
2023-01-08T07:25:36.457Z,99781.53
2023-01-08T07:28:03.169Z,99781.91
2023-01-08T07:30:30.862Z,99769.63
2023-01-08T07:33:01.339Z,99772.19
2023-01-08T07:35:28.742Z,99766.06
2023-01-08T07:37:56.125Z,99762.25
2023-01-08T07:40:22.980Z,99773.19
2023-01-08T07:42:57.453Z,99764.81
2023-01-08T07:45:24.222Z,99767.22
2023-01-08T07:47:50.980Z,99760.38
2023-01-08T07:50:17.695Z,99763.59
2023-01-08T07:52:44.499Z,99766.16
2023-01-08T07:55:11.243Z,99759.22
2023-01-08T07:57:39.337Z,99754.06
2023-01-08T08:00:07.081Z,99754.19
2023-01-08T08:02:34.094Z,99751.78
2023-01-08T08:05:00.899Z,99752.41
2023-01-08T08:07:30.298Z,99743.50
2023-01-08T08:09:57.059Z,99735.31
2023-01-08T08:12:23.819Z,99746.25
2023-01-08T08:14:50.607Z,99742.53
2023-01-08T08:17:17.339Z,99735.25
2023-01-08T08:19:45.626Z,99740.59
2023-01-08T08:22:13.578Z,99742.53
2023-01-08T08:24:40.675Z,99738.63
2023-01-08T08:27:07.552Z,99735.84
2023-01-08T08:29:34.367Z,99743.41
2023-01-08T08:32:01.132Z,99740.13
2023-01-08T08:34:27.951Z,99739.16
2023-01-08T08:36:54.840Z,99741.72
2023-01-08T08:39:21.827Z,99727.22
2023-01-08T08:41:48.647Z,99723.69
2023-01-08T08:44:15.402Z,99719.19
2023-01-08T08:46:42.185Z,99711.75
2023-01-08T08:49:09.053Z,99718.88
2023-01-08T08:51:35.803Z,99720.78
2023-01-08T08:54:02.542Z,99721.53
2023-01-08T08:56:29.970Z,99714.88
2023-01-08T08:58:58.172Z,99713.38
2023-01-08T09:01:25.191Z,99710.19
2023-01-08T09:03:52.060Z,99701.00
2023-01-08T09:06:21.659Z,99709.72
2023-01-08T09:08:48.453Z,99700.66
2023-01-08T09:11:16.412Z,99694.94
2023-01-08T09:13:43.149Z,99697.34
2023-01-08T09:16:10.014Z,99686.41
2023-01-08T09:18:37.292Z,99690.22
2023-01-08T09:21:08.075Z,99681.25
2023-01-08T09:23:35.301Z,99678.97
2023-01-08T09:26:03.645Z,99673.16
2023-01-08T09:28:30.730Z,99668.00
2023-01-08T09:31:00.805Z,99677.41
2023-01-08T09:33:27.534Z,99671.56
2023-01-08T09:35:54.324Z,99666.81
2023-01-08T09:38:21.074Z,99665.22
2023-01-08T09:41:21.281Z,99663.72
2023-01-08T09:43:51.239Z,99660.44
2023-01-08T09:46:22.116Z,99652.13
2023-01-08T09:48:49.908Z,99647.06
2023-01-08T09:51:20.015Z,99651.06
2023-01-08T09:53:50.265Z,99645.31
2023-01-08T09:56:19.142Z,99639.97
2023-01-08T09:58:58.751Z,99628.84
2023-01-08T10:01:29.213Z,99617.53
2023-01-08T10:04:07.095Z,99621.13
2023-01-08T10:06:34.497Z,99605.69
2023-01-08T10:09:01.335Z,99602.31
2023-01-08T10:11:43.171Z,99598.53
2023-01-08T10:14:40.414Z,99587.72
2023-01-08T10:17:46.960Z,99583.53
2023-01-08T10:20:19.538Z,99582.78
2023-01-08T10:22:48.169Z,99578.00
2023-01-08T10:25:21.584Z,99579.78
2023-01-08T10:27:59.015Z,99578.00
2023-01-08T10:30:31.794Z,99575.66
2023-01-08T10:33:04.186Z,99574.66
2023-01-08T10:35:40.492Z,99574.44
2023-01-08T10:38:07.469Z,99559.81
2023-01-08T10:40:44.517Z,99551.81
2023-01-08T10:43:26.241Z,99547.88
2023-01-08T10:46:24.294Z,99538.69
2023-01-08T10:48:55.662Z,99544.16
2023-01-08T10:51:25.348Z,99520.91
2023-01-08T10:53:54.123Z,99527.94
2023-01-08T10:56:24.958Z,99508.09
2023-01-08T10:58:53.190Z,99495.59
2023-01-08T11:01:29.123Z,99498.44
2023-01-08T11:04:05.075Z,99497.25
2023-01-08T11:06:42.446Z,99488.91
2023-01-08T11:09:23.935Z,99490.91
2023-01-08T11:11:51.522Z,99483.09
2023-01-08T11:14:24.156Z,99483.88
2023-01-08T11:16:51.326Z,99474.34
2023-01-08T11:19:32.694Z,99469.19
2023-01-08T11:22:19.400Z,99472.13
2023-01-08T11:24:47.661Z,99468.59
2023-01-08T11:27:29.705Z,99465.66
2023-01-08T11:30:15.715Z,99481.97
2023-01-08T11:33:02.171Z,99484.03
2023-01-08T11:35:48.801Z,99487.84
2023-01-08T11:38:15.681Z,99507.53
2023-01-08T11:40:56.911Z,99513.84
2023-01-08T11:44:01.242Z,99509.84
2023-01-08T11:46:34.100Z,99500.94
2023-01-08T11:49:10.021Z,99498.28
2023-01-08T11:51:57.917Z,99493.28
2023-01-08T11:54:47.125Z,99492.47
2023-01-08T11:57:37.595Z,99495.56
2023-01-08T12:00:31.869Z,99479.81
2023-01-08T12:03:00.942Z,99463.97
2023-01-08T12:05:30.855Z,99460.19
2023-01-08T12:08:05.587Z,99461.41
2023-01-08T12:10:50.069Z,99458.19
2023-01-08T12:13:44.937Z,99451.00
2023-01-08T12:16:49.497Z,99448.63
2023-01-08T12:19:28.044Z,99466.72
2023-01-08T12:22:03.220Z,99458.22
2023-01-08T12:25:11.807Z,99446.72
2023-01-08T12:27:57.656Z,99455.91
2023-01-08T12:30:41.996Z,99454.31
2023-01-08T12:33:18.882Z,99441.59
2023-01-08T12:35:52.092Z,99438.88
2023-01-08T12:38:30.550Z,99433.28
2023-01-08T12:41:01.348Z,99430.50
2023-01-08T12:44:00.503Z,99441.84
2023-01-08T12:46:41.671Z,99423.34
2023-01-08T12:49:11.142Z,99422.75
2023-01-08T12:51:47.155Z,99415.78
2023-01-08T12:54:27.183Z,99405.84
2023-01-08T12:57:07.358Z,99404.22
2023-01-08T12:59:45.093Z,99404.66
2023-01-08T13:02:39.195Z,99405.84
2023-01-08T13:05:36.613Z,99403.66
2023-01-08T13:08:05.249Z,99397.47
2023-01-08T13:10:39.201Z,99395.47
2023-01-08T13:13:08.692Z,99394.69
2023-01-08T13:15:36.172Z,99399.84
2023-01-08T13:18:21.072Z,99393.09
2023-01-08T13:21:03.119Z,99394.09
2023-01-08T13:23:34.417Z,99396.66
2023-01-08T13:26:06.092Z,99401.84
2023-01-08T13:28:38.688Z,99402.84
2023-01-08T13:31:38.487Z,99395.91
2023-01-08T13:34:23.482Z,99381.38
2023-01-08T13:36:58.188Z,99395.69
2023-01-08T13:39:32.527Z,99386.53
2023-01-08T13:42:22.035Z,99395.69
2023-01-08T13:45:04.150Z,99393.72
2023-01-08T13:47:37.196Z,99396.06
2023-01-08T13:50:16.263Z,99392.28
2023-01-08T13:52:46.127Z,99375.19
2023-01-08T13:55:21.171Z,99379.56
2023-01-08T13:57:55.221Z,99386.31
2023-01-08T14:00:47.430Z,99394.31
2023-01-08T14:03:37.458Z,99394.06
2023-01-08T14:06:25.208Z,99397.06
2023-01-08T14:09:03.884Z,99393.72
2023-01-08T14:11:46.551Z,99394.28
2023-01-08T14:14:18.138Z,99398.66
2023-01-08T14:16:46.338Z,99402.66
2023-01-08T14:19:17.963Z,99407.84
2023-01-08T14:21:56.806Z,99396.88
2023-01-08T14:24:26.045Z,99391.72
2023-01-08T14:27:00.029Z,99392.31
2023-01-08T14:29:30.091Z,99393.09
2023-01-08T14:31:59.457Z,99393.69
2023-01-08T14:34:30.013Z,99401.84
2023-01-08T14:36:57.660Z,99393.06
2023-01-08T14:39:34.492Z,99411.56
2023-01-08T14:42:28.388Z,99409.38
2023-01-08T14:45:02.193Z,99410.09
2023-01-08T14:47:39.690Z,99392.00
2023-01-08T14:50:07.759Z,99380.25
2023-01-08T14:52:39.369Z,99376.22
2023-01-08T14:55:06.540Z,99376.94
2023-01-08T14:57:34.893Z,99371.16
2023-01-08T15:00:03.021Z,99370.25
2023-01-08T15:02:36.918Z,99369.56
2023-01-08T15:05:26.897Z,99378.84
2023-01-08T15:08:22.816Z,99373.69
2023-01-08T15:10:59.808Z,99386.59
2023-01-08T15:13:32.833Z,99375.84
2023-01-08T15:16:07.916Z,99394.84
2023-01-08T15:18:43.667Z,99384.72
2023-01-08T15:21:15.735Z,99392.47
2023-01-08T15:23:46.878Z,99383.72
2023-01-08T15:26:14.793Z,99392.63
2023-01-08T15:29:00.845Z,99385.38
2023-01-08T15:31:33.827Z,99385.63
2023-01-08T15:34:01.232Z,99379.66
2023-01-08T15:36:28.223Z,99374.91
2023-01-08T15:38:54.965Z,99380.41
2023-01-08T15:41:42.303Z,99376.03
2023-01-08T15:44:12.944Z,99384.16
2023-01-08T15:46:39.801Z,99386.13
2023-01-08T15:49:06.736Z,99374.59
2023-01-08T15:51:47.352Z,99375.94
2023-01-08T15:54:16.070Z,99380.88
2023-01-08T15:56:43.218Z,99390.91
2023-01-08T15:59:22.969Z,99391.66
2023-01-08T16:02:01.456Z,99394.06
2023-01-08T16:04:28.608Z,99390.31
2023-01-08T16:06:55.489Z,99393.31
2023-01-08T16:09:22.367Z,99390.56
2023-01-08T16:11:50.259Z,99386.50
2023-01-08T16:14:17.003Z,99396.56
2023-01-08T16:16:43.943Z,99386.81
2023-01-08T16:19:10.844Z,99391.91
2023-01-08T16:21:38.614Z,99376.34
2023-01-08T16:24:05.955Z,99386.13
2023-01-08T16:26:32.847Z,99381.97
2023-01-08T16:28:59.700Z,99385.53
2023-01-08T16:31:26.630Z,99387.13
2023-01-08T16:33:53.446Z,99391.66
2023-01-08T16:36:20.240Z,99392.28
2023-01-08T16:38:48.825Z,99385.75
2023-01-08T16:41:15.660Z,99388.03
2023-01-08T16:43:45.286Z,99384.13
2023-01-08T16:46:13.928Z,99382.94
2023-01-08T16:48:42.419Z,99391.38
2023-01-08T16:51:09.771Z,99377.06
2023-01-08T16:53:37.517Z,99367.06
2023-01-08T16:56:05.486Z,99366.00
2023-01-08T16:58:32.876Z,99377.31
2023-01-08T17:01:00.569Z,99374.47
2023-01-08T17:03:27.544Z,99380.22
2023-01-08T17:06:00.153Z,99378.91
2023-01-08T17:08:30.094Z,99392.75
2023-01-08T17:10:56.975Z,99382.16
2023-01-08T17:13:23.717Z,99388.72
2023-01-08T17:15:53.206Z,99384.16
2023-01-08T17:18:20.594Z,99384.22
2023-01-08T17:20:54.797Z,99383.06
2023-01-08T17:23:27.177Z,99381.75
2023-01-08T17:25:58.132Z,99386.72
2023-01-08T17:28:25.376Z,99381.94
2023-01-08T17:30:53.033Z,99388.63
2023-01-08T17:33:20.025Z,99373.06
2023-01-08T17:35:47.452Z,99374.09
2023-01-08T17:38:14.289Z,99368.81
2023-01-08T17:40:41.087Z,99372.47
2023-01-08T17:43:08.147Z,99379.38
2023-01-08T17:45:37.835Z,99371.53
2023-01-08T17:48:05.008Z,99359.13
2023-01-08T17:50:31.830Z,99366.06
2023-01-08T17:52:59.195Z,99358.44
2023-01-08T17:55:26.542Z,99363.50
2023-01-08T17:57:53.593Z,99369.19
2023-01-08T18:00:20.928Z,99372.31
2023-01-08T18:02:50.738Z,99377.97
2023-01-08T18:05:17.797Z,99373.81
2023-01-08T18:07:45.163Z,99367.25
2023-01-08T18:10:13.084Z,99362.66
2023-01-08T18:12:40.562Z,99367.50
2023-01-08T18:15:09.740Z,99380.75
2023-01-08T18:17:38.652Z,99374.03
2023-01-08T18:20:12.930Z,99375.19
2023-01-08T18:22:44.394Z,99372.47
2023-01-08T18:25:13.381Z,99380.91
2023-01-08T18:27:40.233Z,99369.72
2023-01-08T18:30:07.926Z,99381.44
2023-01-08T18:32:35.627Z,99385.25
2023-01-08T18:35:05.695Z,99378.59
2023-01-08T18:37:35.634Z,99370.53
2023-01-08T18:40:19.243Z,99373.72
2023-01-08T18:42:47.256Z,99369.56
2023-01-08T18:45:15.185Z,99375.22
2023-01-08T18:47:47.971Z,99371.63
2023-01-08T18:50:14.870Z,99380.53
2023-01-08T18:52:42.105Z,99383.56
2023-01-08T18:55:15.498Z,99383.34
2023-01-08T18:57:44.609Z,99382.59
2023-01-08T19:00:12.611Z,99385.13
2023-01-08T19:03:12.336Z,99388.84
2023-01-08T19:05:44.980Z,99382.53
2023-01-08T19:08:11.961Z,99363.72
2023-01-08T19:10:39.738Z,99365.50
2023-01-08T19:13:06.985Z,99371.44
2023-01-08T19:15:34.235Z,99368.56
2023-01-08T19:18:01.146Z,99367.16
2023-01-08T19:20:28.766Z,99358.38
2023-01-08T19:22:55.715Z,99361.78
2023-01-08T19:25:22.764Z,99361.94
2023-01-08T19:27:49.737Z,99363.69
2023-01-08T19:30:17.226Z,99359.34
2023-01-08T19:32:45.907Z,99357.75
2023-01-08T19:35:12.879Z,99352.63
2023-01-08T19:37:41.797Z,99356.16
2023-01-08T19:40:09.705Z,99355.34
2023-01-08T19:42:55.239Z,99350.38
2023-01-08T19:45:22.126Z,99346.56
2023-01-08T19:47:49.358Z,99345.91
2023-01-08T19:50:21.919Z,99346.66
2023-01-08T19:52:51.369Z,99341.56
2023-01-08T19:55:22.206Z,99350.03
2023-01-08T19:57:50.146Z,99335.97
2023-01-08T20:00:18.068Z,99332.16
2023-01-08T20:02:45.292Z,99343.75
2023-01-08T20:05:15.134Z,99339.03
2023-01-08T20:07:43.733Z,99339.06
2023-01-08T20:10:14.164Z,99337.19
2023-01-08T20:12:41.165Z,99330.47
2023-01-08T20:15:19.318Z,99330.97
2023-01-08T20:17:46.523Z,99317.66
2023-01-08T20:20:17.827Z,99318.19
2023-01-08T20:22:45.112Z,99317.56
2023-01-08T20:25:14.200Z,99317.75
2023-01-08T20:27:41.097Z,99311.00
2023-01-08T20:30:14.698Z,99316.28
2023-01-08T20:32:42.203Z,99322.56
2023-01-08T20:35:12.389Z,99310.41
2023-01-08T20:37:51.221Z,99301.00
2023-01-08T20:40:42.892Z,99293.72
2023-01-08T20:43:13.257Z,99298.69
2023-01-08T20:45:43.235Z,99295.84
2023-01-08T20:48:14.663Z,99303.25
2023-01-08T20:50:46.866Z,99315.78
2023-01-08T20:53:14.724Z,99317.72
2023-01-08T20:55:43.693Z,99313.53
2023-01-08T20:58:13.607Z,99313.88
2023-01-08T21:00:43.246Z,99311.94
2023-01-08T21:03:10.652Z,99307.28
2023-01-08T21:05:38.467Z,99302.97
2023-01-08T21:08:06.098Z,99304.25
2023-01-08T21:10:33.424Z,99299.78
2023-01-08T21:13:00.464Z,99293.41
2023-01-08T21:15:27.313Z,99288.78
2023-01-08T21:17:54.307Z,99284.50
2023-01-08T21:20:21.214Z,99285.47
2023-01-08T21:22:48.110Z,99276.16
2023-01-08T21:25:14.945Z,99273.63
2023-01-08T21:27:41.732Z,99267.22
2023-01-08T21:30:09.279Z,99265.94
2023-01-08T21:32:37.236Z,99270.47
2023-01-08T21:35:04.234Z,99261.03
2023-01-08T21:37:31.710Z,99245.63
2023-01-08T21:39:58.698Z,99237.44
2023-01-08T21:42:44.126Z,99244.19
2023-01-08T21:45:26.008Z,99245.81
2023-01-08T21:47:54.096Z,99239.53
2023-01-08T21:50:21.355Z,99229.94
2023-01-08T21:53:06.691Z,99232.63
2023-01-08T21:55:37.606Z,99220.09
2023-01-08T21:58:07.754Z,99223.28
2023-01-08T22:00:40.337Z,99215.28
2023-01-08T22:03:08.883Z,99214.97
2023-01-08T22:05:35.778Z,99207.91
2023-01-08T22:08:02.750Z,99196.03
2023-01-08T22:10:29.648Z,99196.84
2023-01-08T22:12:56.854Z,99181.94
2023-01-08T22:15:25.145Z,99186.13
2023-01-08T22:17:52.231Z,99181.34
2023-01-08T22:20:19.174Z,99171.56
2023-01-08T22:22:49.001Z,99182.00
2023-01-08T22:25:15.935Z,99179.06
2023-01-08T22:27:42.837Z,99171.16
2023-01-08T22:30:10.573Z,99163.88
2023-01-08T22:32:37.360Z,99164.00
2023-01-08T22:35:05.054Z,99165.47
2023-01-08T22:37:31.911Z,99159.16
2023-01-08T22:39:58.716Z,99149.00
2023-01-08T22:42:25.577Z,99149.16
2023-01-08T22:44:52.450Z,99142.16
2023-01-08T22:47:19.247Z,99133.50
2023-01-08T22:49:47.393Z,99136.09
2023-01-08T22:52:14.468Z,99138.13
2023-01-08T22:54:41.682Z,99140.25
2023-01-08T22:57:09.957Z,99135.19
2023-01-08T22:59:36.917Z,99134.47
2023-01-08T23:02:03.836Z,99130.03
2023-01-08T23:04:31.373Z,99130.31
2023-01-08T23:06:58.182Z,99120.59
2023-01-08T23:09:25.872Z,99121.22
2023-01-08T23:11:52.824Z,99124.75
2023-01-08T23:14:19.549Z,99120.94
2023-01-08T23:16:46.286Z,99119.97
2023-01-08T23:19:14.093Z,99111.16
2023-01-08T23:21:43.851Z,99090.34
2023-01-08T23:24:13.785Z,99096.13
2023-01-08T23:26:41.014Z,99096.78
2023-01-08T23:29:07.836Z,99079.66
2023-01-08T23:31:37.773Z,99092.13
2023-01-08T23:34:07.919Z,99072.44
2023-01-08T23:36:34.743Z,99081.38
2023-01-08T23:39:02.155Z,99080.72
2023-01-08T23:41:35.115Z,99071.09
2023-01-08T23:44:08.073Z,99071.09
2023-01-08T23:46:35.456Z,99065.00
2023-01-08T23:49:02.348Z,99054.78
2023-01-08T23:51:29.321Z,99047.59
2023-01-08T23:53:56.143Z,99056.81
2023-01-08T23:56:23.239Z,99067.91
2023-01-08T23:58:50.561Z,99043.44
